Time;durP1;ratioP1;P1;durP2;ratioP2;P2;SDS_P1;SDS_P2;PMS_P1;PMS_P2;Temp;Humidity;BMP_temperature;BMP_pressure;BME280_temperature;BME280_humidity;BME280_pressure;Samples;Min_cycle;Max_cycle;Signal;HPM_P1;HPM_P2
2022/09/13 05:44:32;;;;;;;5.50;4.80;;;15.30;99.90;;;;;;6071146;23;20686;-82
2022/09/13 05:46:59;;;;;;;5.07;4.17;;;15.30;99.90;;;;;;4963377;29;20443;-83
2022/09/13 05:49:26;;;;;;;5.20;4.70;;;15.40;99.90;;;;;;4963992;29;20453;-84
2022/09/13 05:51:52;;;;;;;4.50;4.10;;;15.30;99.90;;;;;;4963557;29;20518;-82
2022/09/13 05:54:19;;;;;;;4.10;3.80;;;15.40;99.90;;;;;;4964635;28;20951;-83
2022/09/13 05:56:46;;;;;;;4.33;3.93;;;15.40;99.90;;;;;;4963763;29;20825;-84
2022/09/13 05:59:14;;;;;;;6.70;6.00;;;15.40;99.90;;;;;;4964023;28;20486;-82
2022/09/13 06:01:42;;;;;;;8.13;5.57;;;15.50;99.90;;;;;;4959897;29;20478;-82
2022/09/13 06:04:11;;;;;;;6.00;5.03;;;15.50;99.90;;;;;;4961431;29;20459;-85
2022/09/13 06:06:38;;;;;;;7.27;6.67;;;15.50;99.90;;;;;;4954547;28;20510;-83
2022/09/13 06:09:07;;;;;;;5.93;5.20;;;15.50;99.90;;;;;;4944147;29;20537;-83
2022/09/13 06:11:34;;;;;;;4.50;4.20;;;15.60;99.90;;;;;;4952896;29;20991;-83
2022/09/13 06:14:00;;;;;;;4.57;4.17;;;15.60;99.90;;;;;;4963135;29;20457;-83
2022/09/13 06:16:27;;;;;;;4.87;4.47;;;15.70;99.90;;;;;;4956426;28;20483;-82
2022/09/13 06:18:55;;;;;;;4.53;4.23;;;15.70;99.90;;;;;;4953396;28;20458;-83
2022/09/13 06:21:23;;;;;;;5.73;5.20;;;15.80;99.90;;;;;;4956266;28;20458;-83
2022/09/13 06:23:51;;;;;;;7.60;4.80;;;15.90;99.90;;;;;;4943814;29;20965;-83
2022/09/13 06:26:20;;;;;;;4.80;4.40;;;15.90;99.90;;;;;;4948975;29;21000;-83
2022/09/13 06:28:48;;;;;;;5.10;4.57;;;16.00;99.90;;;;;;4949484;28;20467;-84
2022/09/13 06:31:16;;;;;;;4.80;4.30;;;16.00;99.90;;;;;;4949839;29;20596;-83
2022/09/13 06:33:43;;;;;;;7.53;4.30;;;16.00;99.90;;;;;;4966890;29;20453;-81
2022/09/13 06:36:13;;;;;;;5.40;4.37;;;16.00;99.90;;;;;;4964258;28;20476;-82
2022/09/13 06:38:41;;;;;;;6.13;5.30;;;16.10;99.90;;;;;;4969125;29;20465;-82
2022/09/13 06:41:09;;;;;;;5.67;5.17;;;16.00;99.90;;;;;;4957268;29;20452;-82
2022/09/13 06:43:36;;;;;;;9.47;4.37;;;16.00;99.90;;;;;;4959814;29;20882;-82
2022/09/13 06:46:06;;;;;;;7.20;4.57;;;16.00;99.90;;;;;;4957122;28;20475;-81
2022/09/13 06:48:34;;;;;;;6.53;4.40;;;16.00;99.90;;;;;;4958609;29;20462;-82
2022/09/13 06:51:02;;;;;;;5.20;4.23;;;16.00;99.90;;;;;;4956482;29;20478;-82
2022/09/13 06:53:32;;;;;;;7.53;5.30;;;16.00;99.90;;;;;;4960445;29;20444;-82
2022/09/13 06:56:04;;;;;;;6.23;5.73;;;16.00;99.90;;;;;;4957224;28;20532;-82
2022/09/13 06:58:32;;;;;;;6.17;5.50;;;16.00;99.90;;;;;;4956369;29;20451;-82
2022/09/13 07:01:11;;;;;;;5.73;5.20;;;16.00;99.90;;;;;;4960630;29;20449;-81
2022/09/13 07:03:39;;;;;;;8.43;5.33;;;16.00;99.90;;;;;;4955276;29;20533;-82
2022/09/13 07:06:13;;;;;;;7.00;6.33;;;16.10;99.90;;;;;;4959554;29;20475;-82
2022/09/13 07:08:43;;;;;;;5.73;5.23;;;16.20;99.90;;;;;;4959423;29;20462;-82
2022/09/13 07:11:11;;;;;;;7.70;5.30;;;16.30;99.90;;;;;;4958784;29;20500;-82
2022/09/13 07:13:38;;;;;;;8.33;5.07;;;16.30;99.90;;;;;;4955443;29;20451;-82
2022/09/13 07:16:07;;;;;;;7.23;5.67;;;16.30;99.90;;;;;;4949305;29;20483;-81
2022/09/13 07:18:34;;;;;;;13.50;7.30;;;16.50;99.90;;;;;;4945926;29;20481;-81
2022/09/13 07:21:03;;;;;;;11.17;6.20;;;16.60;99.90;;;;;;4955586;29;20471;-81
2022/09/13 07:23:31;;;;;;;10.27;6.77;;;16.70;99.90;;;;;;4954617;29;20452;-81
2022/09/13 07:26:03;;;;;;;6.70;5.93;;;16.80;99.90;;;;;;4951113;29;20479;-81
2022/09/13 07:28:32;;;;;;;8.20;5.80;;;16.90;99.90;;;;;;4944499;29;22101;-82
2022/09/13 07:31:05;;;;;;;8.93;5.07;;;17.10;99.90;;;;;;4957319;28;20491;-82
2022/09/13 07:33:32;;;;;;;5.47;4.97;;;17.20;99.90;;;;;;4945843;29;20455;-84
2022/09/13 07:36:01;;;;;;;4.97;4.63;;;17.40;99.90;;;;;;4957828;28;20480;-83
2022/09/13 07:38:28;;;;;;;5.90;5.07;;;17.50;99.90;;;;;;4957333;29;20547;-83
2022/09/13 07:40:57;;;;;;;4.60;4.20;;;17.60;99.90;;;;;;4958638;29;20451;-83
2022/09/13 07:43:27;;;;;;;4.50;4.20;;;17.80;99.90;;;;;;4945698;29;20609;-84
2022/09/13 07:45:58;;;;;;;4.70;4.30;;;17.90;99.90;;;;;;4942288;29;20499;-83
2022/09/13 07:48:26;;;;;;;4.00;3.70;;;18.00;99.90;;;;;;4927968;29;20942;-83
2022/09/13 07:51:03;;;;;;;6.70;4.40;;;18.20;99.90;;;;;;4946359;29;20469;-84
2022/09/13 07:53:31;;;;;;;4.47;4.07;;;18.40;99.90;;;;;;4958271;29;20965;-84
2022/09/13 07:56:04;;;;;;;5.80;5.20;;;18.50;99.90;;;;;;4949555;29;20484;-85
2022/09/13 07:58:33;;;;;;;8.63;4.60;;;18.70;99.90;;;;;;4942052;29;20821;-84
2022/09/13 08:01:05;;;;;;;7.97;3.80;;;18.80;99.90;;;;;;4943612;29;20464;-81
2022/09/13 08:03:32;;;;;;;8.13;3.90;;;19.00;99.90;;;;;;4941299;29;20448;-83
2022/09/13 08:06:00;;;;;;;5.20;4.70;;;19.10;99.90;;;;;;4955003;29;20524;-82
2022/09/13 08:08:27;;;;;;;7.30;4.30;;;19.30;99.90;;;;;;4945742;28;20468;-84
2022/09/13 08:10:54;;;;;;;6.43;4.50;;;19.50;99.90;;;;;;4941413;29;20494;-83
2022/09/13 08:13:21;;;;;;;4.50;4.10;;;19.70;99.90;;;;;;4947506;29;20518;-84
2022/09/13 08:15:49;;;;;;;5.90;3.93;;;20.00;99.90;;;;;;4940320;29;20478;-83
2022/09/13 08:18:16;;;;;;;4.03;3.73;;;20.20;99.90;;;;;;4946770;29;20556;-83
2022/09/13 08:20:43;;;;;;;5.03;4.20;;;20.50;99.90;;;;;;4957223;28;20462;-84
2022/09/13 08:23:11;;;;;;;3.80;3.50;;;20.70;99.90;;;;;;4946031;28;20457;-83
2022/09/13 08:25:38;;;;;;;5.13;4.63;;;20.90;99.90;;;;;;4964436;28;20569;-86
2022/09/13 08:28:06;;;;;;;6.73;4.30;;;21.10;99.90;;;;;;4946930;29;20495;-82
2022/09/13 08:30:36;;;;;;;5.17;3.93;;;21.30;99.90;;;;;;4964689;29;20479;-83
2022/09/13 08:33:04;;;;;;;4.93;3.90;;;21.40;99.90;;;;;;4948010;29;20470;-83
2022/09/13 08:38:47;;;;;;;3.90;3.50;;;21.60;99.90;;;;;;4941615;29;20452;-84
2022/09/13 08:41:44;;;;;;;4.23;3.63;;;21.70;99.90;;;;;;4954451;29;20538;-86
2022/09/13 08:48:52;;;;;;;5.00;4.00;;;21.90;99.90;;;;;;4967571;29;20473;-86
2022/09/13 08:57:44;;;;;;;4.47;3.63;;;22.30;99.90;;;;;;4963241;28;20459;-85
2022/09/13 09:00:18;;;;;;;5.87;5.07;;;22.30;99.90;;;;;;4964356;29;20449;-85
2022/09/13 09:03:02;;;;;;;7.07;5.00;;;22.40;99.90;;;;;;4943218;29;20500;-84
2022/09/13 09:05:30;;;;;;;5.83;4.30;;;22.40;99.90;;;;;;4950203;28;20479;-85
2022/09/13 09:08:00;;;;;;;6.23;3.77;;;22.50;99.90;;;;;;4960020;29;20448;-85
2022/09/13 09:10:32;;;;;;;8.70;4.97;;;22.50;99.90;;;;;;4959729;29;20491;-85
2022/09/13 09:13:04;;;;;;;5.10;3.67;;;22.60;99.90;;;;;;4945616;29;20506;-85
2022/09/13 09:15:36;;;;;;;5.13;4.27;;;22.70;99.90;;;;;;4967539;28;20473;-85
2022/09/13 09:18:11;;;;;;;3.80;3.00;;;22.80;99.90;;;;;;4968044;29;20460;-85
2022/09/13 09:20:41;;;;;;;3.47;3.17;;;23.00;99.90;;;;;;4960428;29;20452;-82
2022/09/13 09:23:14;;;;;;;5.13;3.27;;;23.20;99.90;;;;;;4967870;29;20457;-81
2022/09/13 09:25:42;;;;;;;5.47;3.10;;;23.40;99.90;;;;;;4970991;28;20457;-80
2022/09/13 09:28:12;;;;;;;6.00;3.20;;;23.60;99.90;;;;;;4968052;29;20461;-82
2022/09/13 09:30:45;;;;;;;4.17;3.13;;;23.70;99.20;;;;;;4968999;29;20492;-82
2022/09/13 09:33:34;;;;;;;3.27;3.07;;;23.80;99.10;;;;;;4969236;29;20915;-83
2022/09/13 09:36:06;;;;;;;5.87;3.73;;;23.90;99.00;;;;;;4968831;28;20485;-83
2022/09/13 09:38:38;;;;;;;4.77;3.40;;;24.00;98.60;;;;;;4968373;29;20483;-83
2022/09/13 09:41:14;;;;;;;6.73;3.10;;;24.20;98.50;;;;;;4968936;29;20493;-83
2022/09/13 09:43:46;;;;;;;2.30;2.20;;;24.40;98.50;;;;;;4968922;29;20437;-83
2022/09/13 09:46:16;;;;;;;2.77;2.57;;;24.60;97.60;;;;;;4969010;28;20483;-83
2022/09/13 09:48:49;;;;;;;4.13;2.57;;;24.80;96.50;;;;;;4967902;29;20465;-83
2022/09/13 09:51:21;;;;;;;5.20;2.70;;;25.10;95.60;;;;;;4967894;29;20501;-83
2022/09/13 09:53:54;;;;;;;2.90;2.03;;;25.30;95.00;;;;;;4968679;29;20448;-82
2022/09/13 09:56:25;;;;;;;2.27;2.17;;;25.60;95.00;;;;;;4968496;28;20479;-83
2022/09/13 09:58:54;;;;;;;3.37;2.43;;;25.90;94.50;;;;;;4968278;29;20445;-83
2022/09/13 10:01:24;;;;;;;2.67;2.00;;;26.20;93.40;;;;;;4967849;29;20450;-83
2022/09/13 10:04:01;;;;;;;4.03;1.40;;;26.40;93.10;;;;;;4968180;29;20519;-83
2022/09/13 10:06:28;;;;;;;2.13;2.03;;;26.70;91.00;;;;;;4969347;28;20477;-83
2022/09/13 10:08:59;;;;;;;1.83;1.70;;;26.90;89.60;;;;;;4968729;29;20459;-83
2022/09/13 10:11:42;;;;;;;2.63;1.77;;;27.00;86.00;;;;;;4968764;29;20493;-83
2022/09/13 10:14:28;;;;;;;2.10;1.67;;;27.00;82.50;;;;;;4968785;29;20487;-83
2022/09/13 10:17:04;;;;;;;1.80;1.70;;;27.10;80.20;;;;;;4968667;28;20442;-83
2022/09/13 10:19:33;;;;;;;1.73;1.50;;;27.10;78.70;;;;;;4969034;29;20471;-83
2022/09/13 10:22:02;;;;;;;1.70;1.60;;;27.10;79.50;;;;;;4974198;29;20449;-81
2022/09/13 10:24:29;;;;;;;3.90;2.13;;;27.10;76.80;;;;;;4976200;28;20464;-82
2022/09/13 10:26:58;;;;;;;0.90;0.90;;;27.10;76.40;;;;;;4971458;29;20455;-83
2022/09/13 10:29:26;;;;;;;1.27;1.20;;;27.20;75.90;;;;;;4967865;29;20835;-83
2022/09/13 10:31:56;;;;;;;1.63;1.53;;;27.10;72.30;;;;;;4967765;29;20501;-83
2022/09/13 10:34:27;;;;;;;1.33;0.87;;;27.10;71.30;;;;;;4967350;28;20461;-83
2022/09/13 10:36:58;;;;;;;2.27;1.70;;;27.00;72.50;;;;;;4967964;29;20456;-83
2022/09/13 10:39:26;;;;;;;1.90;1.70;;;27.10;74.50;;;;;;4967463;29;20854;-83
2022/09/13 10:41:57;;;;;;;1.20;1.20;;;27.20;77.00;;;;;;4966759;29;20457;-83
2022/09/13 10:44:32;;;;;;;2.70;1.43;;;27.40;75.70;;;;;;4967077;28;20438;-84
2022/09/13 10:47:03;;;;;;;1.60;1.50;;;27.50;76.10;;;;;;4967382;29;20449;-83
2022/09/13 10:49:37;;;;;;;1.80;1.70;;;27.70;74.30;;;;;;4966583;28;20466;-83
2022/09/13 10:52:33;;;;;;;2.37;1.60;;;27.80;74.00;;;;;;4966183;29;20495;-83
2022/09/13 10:55:30;;;;;;;1.90;1.60;;;28.00;72.80;;;;;;4966606;28;20514;-83
2022/09/13 10:58:21;;;;;;;1.40;1.20;;;28.30;67.20;;;;;;4966453;29;20445;-83
2022/09/13 11:01:18;;;;;;;1.43;1.33;;;28.80;64.90;;;;;;4967462;29;20467;-84
2022/09/13 11:03:58;;;;;;;2.70;1.50;;;29.50;66.90;;;;;;4967174;29;20554;-84
2022/09/13 11:06:31;;;;;;;2.10;1.90;;;30.20;63.20;;;;;;4966431;28;20504;-84
2022/09/13 11:09:10;;;;;;;1.20;1.10;;;31.10;62.60;;;;;;4966707;29;20482;-84
2022/09/13 11:11:43;;;;;;;1.23;0.80;;;32.10;57.90;;;;;;4966592;29;20510;-84
2022/09/13 11:14:32;;;;;;;1.10;1.10;;;32.80;51.90;;;;;;4966528;29;20485;-84
2022/09/13 11:17:12;;;;;;;3.03;2.83;;;33.10;53.80;;;;;;4965338;29;20440;-82
2022/09/13 11:20:10;;;;;;;1.70;1.33;;;33.40;54.10;;;;;;4971386;29;20464;-83
2022/09/13 11:23:02;;;;;;;1.80;1.53;;;34.00;53.80;;;;;;4961290;29;20489;-83
2022/09/13 11:25:48;;;;;;;1.40;1.30;;;34.60;52.70;;;;;;4966482;28;20468;-83
2022/09/13 11:28:25;;;;;;;1.33;0.97;;;35.40;48.70;;;;;;4966673;29;20433;-83
2022/09/13 11:31:10;;;;;;;3.13;1.53;;;36.10;42.80;;;;;;4965723;29;20471;-83
2022/09/13 11:33:50;;;;;;;1.57;1.47;;;36.60;41.00;;;;;;4966476;29;20467;-83
2022/09/13 11:36:41;;;;;;;1.13;1.00;;;36.80;40.60;;;;;;4966276;28;20480;-83
2022/09/13 11:39:19;;;;;;;1.77;1.67;;;37.10;39.60;;;;;;4965418;29;20437;-83
2022/09/13 11:41:53;;;;;;;0.90;0.90;;;37.70;40.00;;;;;;4966437;29;20933;-83
2022/09/13 11:45:01;;;;;;;1.13;1.03;;;38.20;37.70;;;;;;4965972;28;20445;-83
2022/09/13 11:51:10;;;;;;;1.23;1.23;;;38.30;37.50;;;;;;4966085;28;20476;-84
2022/09/13 11:53:57;;;;;;;1.27;1.17;;;38.20;36.60;;;;;;4972982;28;20451;-85
2022/09/13 12:00:24;;;;;;;1.30;1.20;;;37.60;38.20;;;;;;4938190;28;20937;-85
2022/09/13 12:06:39;;;;;;;1.60;1.50;;;37.60;36.50;;;;;;4970311;28;20953;-85
2022/09/13 12:09:12;;;;;;;1.20;1.10;;;37.00;38.30;;;;;;4972919;28;20581;-85
2022/09/13 12:11:45;;;;;;;1.50;1.40;;;36.70;39.70;;;;;;4973315;28;20456;-85
2022/09/13 12:14:15;;;;;;;1.60;1.50;;;36.40;40.00;;;;;;4973161;28;20463;-85
2022/09/13 12:16:45;;;;;;;5.53;2.00;;;36.00;39.90;;;;;;4973200;28;20479;-85
2022/09/13 12:19:46;;;;;;;10.23;3.20;;;35.80;39.40;;;;;;4973076;28;20830;-85
2022/09/13 12:22:15;;;;;;;1.70;1.60;;;35.50;39.00;;;;;;4973006;28;20495;-85
2022/09/13 12:24:47;;;;;;;1.30;1.20;;;35.10;39.10;;;;;;4973048;28;20954;-85
2022/09/13 12:27:21;;;;;;;1.83;1.00;;;34.80;40.00;;;;;;4973249;28;20575;-85
2022/09/13 12:29:52;;;;;;;1.17;1.17;;;34.50;40.80;;;;;;4972968;28;20975;-85
2022/09/13 12:32:20;;;;;;;1.43;1.33;;;34.60;39.90;;;;;;4973137;28;20448;-85
2022/09/13 12:34:50;;;;;;;0.93;0.90;;;34.90;39.30;;;;;;4973118;28;20462;-85
2022/09/13 12:37:37;;;;;;;1.17;1.00;;;35.40;40.30;;;;;;4972816;28;20483;-85
2022/09/13 12:40:34;;;;;;;1.23;1.13;;;35.90;39.70;;;;;;4972997;28;20483;-86
2022/09/13 12:43:19;;;;;;;2.70;1.30;;;36.40;39.50;;;;;;4975880;28;20491;-85
2022/09/13 12:46:02;;;;;;;1.20;1.10;;;36.60;37.30;;;;;;4976027;28;20511;-85
2022/09/13 12:48:59;;;;;;;1.37;1.27;;;36.70;38.40;;;;;;4976164;28;20475;-86
2022/09/13 12:51:42;;;;;;;1.30;1.20;;;36.90;38.70;;;;;;4950390;28;20535;-85
2022/09/13 12:54:27;;;;;;;1.43;1.30;;;37.20;38.80;;;;;;4975962;28;20452;-86
2022/09/13 12:57:07;;;;;;;2.70;1.60;;;37.30;37.50;;;;;;4976010;28;20996;-86
2022/09/13 12:59:56;;;;;;;2.27;1.30;;;37.30;36.00;;;;;;4976166;28;20460;-85
2022/09/13 13:02:28;;;;;;;1.23;1.03;;;37.20;36.00;;;;;;4976020;28;20848;-86
2022/09/13 13:05:02;;;;;;;1.43;1.33;;;37.80;36.30;;;;;;4976178;28;20429;-86
2022/09/13 13:07:32;;;;;;;1.43;1.33;;;38.50;36.30;;;;;;4975894;28;20483;-86
2022/09/13 13:10:01;;;;;;;2.90;1.33;;;39.00;34.50;;;;;;4975746;28;20484;-86
2022/09/13 13:12:32;;;;;;;2.70;2.10;;;39.30;33.90;;;;;;4975828;28;21020;-85
2022/09/13 13:15:00;;;;;;;6.67;2.30;;;39.50;33.80;;;;;;4975752;28;20440;-85
2022/09/13 13:17:40;;;;;;;2.43;1.43;;;39.60;33.70;;;;;;4975692;28;20483;-86
2022/09/13 13:20:42;;;;;;;4.40;1.40;;;39.70;32.40;;;;;;4975791;28;20953;-86
2022/09/13 13:23:26;;;;;;;1.63;1.30;;;39.60;32.20;;;;;;4975678;28;20538;-85
2022/09/13 13:26:07;;;;;;;2.40;1.20;;;39.80;32.60;;;;;;4975577;28;20490;-86
2022/09/13 13:29:11;;;;;;;1.47;1.17;;;40.10;31.80;;;;;;4975374;28;20946;-86
2022/09/13 13:31:41;;;;;;;3.30;1.30;;;40.20;31.50;;;;;;4975313;28;20464;-86
2022/09/13 13:34:36;;;;;;;2.70;1.60;;;40.50;32.50;;;;;;4975362;28;20459;-86
2022/09/13 13:37:06;;;;;;;1.23;1.17;;;40.90;30.70;;;;;;4975262;28;20476;-86
2022/09/13 13:39:40;;;;;;;1.03;0.90;;;41.00;29.50;;;;;;4975233;28;20492;-86
2022/09/13 13:42:25;;;;;;;2.20;1.23;;;41.30;30.40;;;;;;4975365;28;20831;-86
2022/09/13 13:45:24;;;;;;;1.13;1.10;;;41.60;30.00;;;;;;4975567;28;20465;-86
2022/09/13 13:48:08;;;;;;;1.27;1.17;;;41.70;29.60;;;;;;4974731;28;20900;-86
2022/09/13 13:50:35;;;;;;;1.60;1.50;;;41.70;29.50;;;;;;4975518;28;20537;-86
2022/09/13 13:53:21;;;;;;;1.43;1.33;;;41.80;30.00;;;;;;4974942;28;20456;-86
2022/09/13 13:56:06;;;;;;;1.00;1.00;;;41.70;28.80;;;;;;4975013;28;20475;-85
2022/09/13 13:58:50;;;;;;;0.90;0.90;;;41.40;28.70;;;;;;4974688;28;20958;-85
2022/09/13 14:01:22;;;;;;;0.90;0.90;;;40.80;29.60;;;;;;4979552;28;20439;-86
2022/09/13 14:04:26;;;;;;;0.93;0.80;;;40.30;29.10;;;;;;4977150;28;20610;-85
2022/09/13 14:07:03;;;;;;;1.20;1.10;;;39.80;29.90;;;;;;4974159;28;20482;-86
2022/09/13 14:09:39;;;;;;;3.23;1.47;;;39.40;29.60;;;;;;4974311;28;20464;-86
2022/09/13 14:12:19;;;;;;;1.97;1.17;;;39.00;29.50;;;;;;4974643;28;20440;-86
2022/09/13 14:15:12;;;;;;;2.03;1.00;;;38.80;30.40;;;;;;4974748;28;20452;-86
2022/09/13 14:18:02;;;;;;;2.97;1.10;;;38.80;31.10;;;;;;4974247;28;20472;-86
2022/09/13 14:20:29;;;;;;;1.00;0.90;;;38.80;29.60;;;;;;4942292;28;20479;-86
2022/09/13 14:23:12;;;;;;;3.50;1.63;;;38.70;30.40;;;;;;4974318;28;20495;-86
2022/09/13 14:25:39;;;;;;;1.03;0.80;;;38.80;30.00;;;;;;4974145;28;20536;-86
2022/09/13 14:28:06;;;;;;;2.70;1.17;;;38.90;30.20;;;;;;4974216;28;20452;-86
2022/09/13 14:30:37;;;;;;;0.87;0.83;;;39.00;30.80;;;;;;4974498;28;20463;-86
2022/09/13 14:33:07;;;;;;;1.60;1.10;;;39.20;31.80;;;;;;4974163;28;20459;-86
2022/09/13 14:35:41;;;;;;;1.00;1.00;;;39.50;29.20;;;;;;4973803;28;20468;-86
2022/09/13 14:38:34;;;;;;;1.03;0.70;;;40.00;30.40;;;;;;4973558;28;20495;-86
2022/09/13 14:41:11;;;;;;;1.40;0.93;;;40.50;29.00;;;;;;4974093;28;20474;-86
2022/09/13 14:43:37;;;;;;;0.90;0.90;;;40.80;27.40;;;;;;4974204;28;20495;-86
2022/09/13 14:46:10;;;;;;;1.70;0.63;;;40.90;27.10;;;;;;4973802;28;20490;-86
2022/09/13 14:48:40;;;;;;;0.80;0.80;;;41.00;27.00;;;;;;4973656;28;20846;-86
2022/09/13 14:51:15;;;;;;;0.90;0.90;;;41.10;26.80;;;;;;4974029;28;20448;-86
2022/09/13 14:53:45;;;;;;;1.77;0.80;;;41.10;26.90;;;;;;4973858;28;20929;-86
2022/09/13 14:56:19;;;;;;;1.47;0.93;;;40.80;26.90;;;;;;4973765;28;20480;-86
2022/09/13 14:58:51;;;;;;;1.03;0.70;;;40.50;27.20;;;;;;4973571;28;20464;-86
2022/09/13 15:01:22;;;;;;;1.43;1.10;;;40.00;27.40;;;;;;4974022;28;20515;-86
2022/09/13 15:03:50;;;;;;;4.33;0.90;;;39.50;27.80;;;;;;4973168;28;20487;-86
2022/09/13 15:06:24;;;;;;;1.07;0.60;;;38.80;27.40;;;;;;4973588;28;20476;-86
2022/09/13 15:08:52;;;;;;;1.70;1.30;;;38.30;28.00;;;;;;4973475;28;20444;-86
2022/09/13 15:11:31;;;;;;;2.40;0.90;;;37.80;28.40;;;;;;4973609;28;20478;-86
2022/09/13 15:14:02;;;;;;;0.80;0.80;;;37.00;28.30;;;;;;4973502;28;20456;-85
2022/09/13 15:16:31;;;;;;;1.47;0.90;;;36.40;29.20;;;;;;4973585;28;20880;-86
2022/09/13 15:19:26;;;;;;;1.23;1.00;;;35.80;29.90;;;;;;4973258;28;20460;-85
2022/09/13 15:21:54;;;;;;;1.50;0.90;;;35.20;30.30;;;;;;4973303;28;20467;-85
2022/09/13 15:24:30;;;;;;;0.80;0.80;;;34.80;31.30;;;;;;4973308;28;20484;-85
2022/09/13 15:27:06;;;;;;;2.40;0.97;;;34.50;31.80;;;;;;4973780;28;20873;-85
2022/09/13 15:29:36;;;;;;;1.37;1.27;;;34.20;31.20;;;;;;4973312;28;20458;-85
2022/09/13 15:32:05;;;;;;;1.13;0.80;;;33.90;31.30;;;;;;4973527;28;20459;-85
2022/09/13 15:34:32;;;;;;;1.70;1.20;;;33.60;31.20;;;;;;4973511;28;20462;-86
2022/09/13 15:37:08;;;;;;;0.77;0.77;;;33.30;30.80;;;;;;4973763;28;21001;-86
2022/09/13 15:39:48;;;;;;;0.97;0.80;;;33.00;31.20;;;;;;4973230;28;20939;-86
2022/09/13 15:42:16;;;;;;;1.13;1.03;;;32.80;30.80;;;;;;4973979;28;21112;-86
2022/09/13 15:44:45;;;;;;;1.27;1.17;;;32.60;31.70;;;;;;4973060;28;20466;-86
2022/09/13 15:47:19;;;;;;;1.50;1.10;;;32.40;32.20;;;;;;4973203;28;20490;-86
2022/09/13 15:49:49;;;;;;;1.70;1.07;;;32.20;33.30;;;;;;4973065;28;20546;-86
2022/09/13 15:52:17;;;;;;;2.80;1.40;;;32.00;33.40;;;;;;4973489;28;20466;-86
2022/09/13 15:54:48;;;;;;;1.37;0.87;;;31.80;33.70;;;;;;4973647;28;20454;-86
2022/09/13 15:57:19;;;;;;;3.43;1.30;;;31.60;33.90;;;;;;4974065;28;20836;-86
2022/09/13 15:59:45;;;;;;;0.90;0.80;;;31.40;34.40;;;;;;4973499;28;20472;-85
2022/09/13 16:02:22;;;;;;;1.13;0.97;;;31.30;34.60;;;;;;4973412;28;20467;-86
2022/09/13 16:04:49;;;;;;;2.40;1.40;;;31.10;35.00;;;;;;4973565;28;20463;-85
2022/09/13 16:07:17;;;;;;;1.30;1.20;;;30.90;35.60;;;;;;4973248;28;20477;-85
2022/09/13 16:09:44;;;;;;;1.30;1.30;;;30.70;35.80;;;;;;4973416;28;20455;-85
2022/09/13 16:12:11;;;;;;;4.20;1.40;;;30.60;35.40;;;;;;4973411;28;20456;-85
2022/09/13 16:14:38;;;;;;;1.60;1.27;;;30.30;36.20;;;;;;4973168;28;20452;-85
2022/09/13 16:17:07;;;;;;;1.33;1.23;;;30.20;36.70;;;;;;4976929;28;20486;-85
2022/09/13 16:19:36;;;;;;;2.93;1.30;;;30.00;37.70;;;;;;4976705;28;20823;-85
2022/09/13 16:22:03;;;;;;;1.00;1.00;;;29.70;38.60;;;;;;4977085;28;20463;-85
2022/09/13 16:24:30;;;;;;;2.00;1.80;;;29.60;39.50;;;;;;4977428;28;20498;-85
2022/09/13 16:27:03;;;;;;;1.90;1.50;;;29.50;40.40;;;;;;4978051;28;20502;-85
2022/09/13 16:29:30;;;;;;;2.50;1.50;;;29.30;41.40;;;;;;4977346;28;20813;-85
2022/09/13 16:31:58;;;;;;;1.90;1.60;;;29.10;41.80;;;;;;4977249;28;20978;-85
2022/09/13 16:34:25;;;;;;;1.43;1.10;;;29.00;42.50;;;;;;4977330;28;20878;-85
2022/09/13 16:36:53;;;;;;;1.27;1.10;;;28.80;42.90;;;;;;4977533;28;20480;-85
2022/09/13 16:39:20;;;;;;;1.70;1.60;;;28.70;43.50;;;;;;4977329;28;20546;-85
2022/09/13 16:41:47;;;;;;;2.77;1.37;;;28.60;43.60;;;;;;4977824;28;20462;-85
2022/09/13 16:44:14;;;;;;;2.00;1.30;;;28.50;43.90;;;;;;4978477;28;20498;-85
2022/09/13 16:46:43;;;;;;;1.67;1.53;;;28.30;44.60;;;;;;4978226;28;20490;-85
2022/09/13 16:49:10;;;;;;;3.87;1.90;;;28.30;44.80;;;;;;4977608;28;20489;-85
2022/09/13 16:51:37;;;;;;;2.63;1.50;;;28.10;45.20;;;;;;4978017;28;20473;-85
2022/09/13 16:54:06;;;;;;;1.93;1.70;;;28.00;45.50;;;;;;4978739;28;20443;-85
2022/09/13 16:56:34;;;;;;;1.97;1.87;;;27.90;45.70;;;;;;4979051;28;20604;-85
2022/09/13 16:59:01;;;;;;;1.80;1.70;;;27.80;46.00;;;;;;4978276;28;20477;-85
2022/09/13 17:01:29;;;;;;;1.93;1.77;;;27.70;46.30;;;;;;4979136;28;20458;-85
2022/09/13 17:03:58;;;;;;;2.00;1.90;;;27.60;46.50;;;;;;4979043;28;21074;-85
2022/09/13 17:06:31;;;;;;;3.20;2.00;;;27.50;46.80;;;;;;4978033;28;20476;-85
2022/09/13 17:09:13;;;;;;;1.97;1.60;;;27.40;46.90;;;;;;4976589;28;20445;-87
2022/09/13 17:11:42;;;;;;;1.80;1.60;;;27.30;47.40;;;;;;4980258;28;20485;-83
2022/09/13 17:14:10;;;;;;;2.73;1.70;;;27.10;47.50;;;;;;4986907;28;20452;-82
2022/09/13 17:16:42;;;;;;;1.23;1.13;;;27.00;47.90;;;;;;4977650;28;20990;-83
2022/09/13 17:19:33;;;;;;;1.60;1.50;;;26.90;48.20;;;;;;4980131;28;20859;-85
2022/09/13 17:22:01;;;;;;;1.50;1.40;;;26.80;48.60;;;;;;4980153;28;20451;-83
2022/09/13 17:24:33;;;;;;;2.30;1.60;;;26.70;49.10;;;;;;4998008;28;20498;-84
2022/09/13 17:27:06;;;;;;;2.27;1.90;;;26.60;49.30;;;;;;4998053;28;20504;-84
2022/09/13 17:29:34;;;;;;;4.37;3.60;;;26.50;49.40;;;;;;4991752;28;20457;-85
2022/09/13 17:32:03;;;;;;;4.00;3.67;;;26.40;49.80;;;;;;4990080;28;20468;-84
2022/09/13 17:34:32;;;;;;;2.30;2.10;;;26.30;50.20;;;;;;4998018;28;20437;-84
2022/09/13 17:36:59;;;;;;;1.77;1.67;;;26.20;50.50;;;;;;4997835;28;20471;-82
2022/09/13 17:39:26;;;;;;;1.77;1.67;;;26.10;50.80;;;;;;4977451;28;20462;-83
2022/09/13 17:41:54;;;;;;;1.70;1.60;;;26.00;51.20;;;;;;4977911;28;20457;-83
2022/09/13 17:44:21;;;;;;;3.40;2.43;;;25.90;51.60;;;;;;4977512;28;20497;-83
2022/09/13 17:46:49;;;;;;;2.40;2.17;;;25.80;51.80;;;;;;4993040;23;20494;-83
2022/09/13 17:49:24;;;;;;;2.10;1.90;;;25.70;52.20;;;;;;4986469;28;20782;-84
2022/09/13 17:51:53;;;;;;;2.30;1.80;;;25.60;52.60;;;;;;4985516;28;20444;-83
2022/09/13 17:54:23;;;;;;;2.07;1.83;;;25.40;53.00;;;;;;4986282;28;20460;-83
2022/09/13 17:56:50;;;;;;;2.10;2.00;;;25.30;53.50;;;;;;4984564;28;20552;-83
2022/09/13 17:59:21;;;;;;;2.13;1.70;;;25.20;54.00;;;;;;4974894;28;20515;-85
2022/09/13 18:01:50;;;;;;;3.03;2.40;;;25.10;54.50;;;;;;4980073;28;20461;-83
2022/09/13 18:04:18;;;;;;;2.63;2.27;;;25.00;55.20;;;;;;4982560;28;21009;-83
2022/09/13 18:06:45;;;;;;;2.90;2.30;;;24.90;55.70;;;;;;4967903;28;20478;-84
2022/09/13 18:09:14;;;;;;;2.20;2.10;;;24.70;56.30;;;;;;4962968;29;20509;-82
2022/09/13 18:11:41;;;;;;;2.53;2.20;;;24.60;56.70;;;;;;4963951;28;20483;-83
2022/09/13 18:14:11;;;;;;;2.60;1.90;;;24.50;57.20;;;;;;4972107;28;20458;-84
2022/09/13 18:16:39;;;;;;;2.90;2.70;;;24.40;57.70;;;;;;4976468;28;20472;-82
2022/09/13 18:19:07;;;;;;;2.63;2.37;;;24.30;58.10;;;;;;4977974;28;20463;-84
2022/09/13 18:21:34;;;;;;;2.97;2.43;;;24.20;58.40;;;;;;4963009;29;20457;-84
2022/09/13 18:24:01;;;;;;;3.50;3.20;;;24.10;58.80;;;;;;4962588;28;20493;-83
2022/09/13 18:26:30;;;;;;;7.90;5.10;;;24.00;59.10;;;;;;4976705;28;20477;-84
2022/09/13 18:29:00;;;;;;;5.50;4.00;;;23.90;59.50;;;;;;4980728;28;20455;-83
2022/09/13 18:31:28;;;;;;;8.60;6.10;;;23.80;60.20;;;;;;4976480;28;20437;-84
2022/09/13 18:33:59;;;;;;;6.77;5.70;;;23.70;60.50;;;;;;4968379;28;20496;-85
2022/09/13 18:36:28;;;;;;;11.10;5.60;;;23.60;61.20;;;;;;4972343;28;20835;-85
2022/09/13 18:38:56;;;;;;;10.10;5.00;;;23.50;61.40;;;;;;4961514;28;20460;-84
2022/09/13 18:41:25;;;;;;;7.03;4.40;;;23.50;61.70;;;;;;4973746;28;20464;-84
2022/09/13 18:43:54;;;;;;;8.53;4.87;;;23.50;61.80;;;;;;4977861;28;20452;-85
2022/09/13 18:46:22;;;;;;;3.03;2.70;;;23.40;62.00;;;;;;4965694;28;20483;-84
2022/09/13 18:48:51;;;;;;;4.93;3.43;;;23.30;62.90;;;;;;4971666;28;20503;-84
2022/09/13 18:51:21;;;;;;;3.23;3.03;;;23.30;64.20;;;;;;4981130;28;20458;-85
2022/09/13 18:53:49;;;;;;;3.10;2.90;;;23.20;64.60;;;;;;4979685;28;20480;-83
2022/09/13 18:56:18;;;;;;;3.47;2.67;;;23.20;65.00;;;;;;4965750;28;20476;-84
2022/09/13 18:58:45;;;;;;;4.73;4.20;;;23.20;65.50;;;;;;4959111;29;20946;-84
2022/09/13 19:01:15;;;;;;;2.10;2.00;;;23.10;66.00;;;;;;4964584;28;20457;-84
2022/09/13 19:03:47;;;;;;;2.80;2.60;;;23.10;66.90;;;;;;4962812;28;20452;-83
2022/09/13 19:06:16;;;;;;;2.70;2.50;;;23.00;67.60;;;;;;4965374;28;20484;-84
2022/09/13 19:08:45;;;;;;;3.07;2.87;;;23.00;68.30;;;;;;4959326;29;20457;-83
2022/09/13 19:11:13;;;;;;;6.90;3.77;;;23.00;68.10;;;;;;4971376;28;20460;-83
2022/09/13 19:13:40;;;;;;;5.13;3.90;;;23.00;68.30;;;;;;4959313;28;20487;-84
2022/09/13 19:16:09;;;;;;;6.47;4.30;;;22.90;68.50;;;;;;4959291;29;20481;-82
2022/09/13 19:18:36;;;;;;;2.73;2.53;;;22.90;68.80;;;;;;4959230;29;20488;-84
2022/09/13 19:21:05;;;;;;;4.73;4.23;;;22.90;69.90;;;;;;4959959;28;20453;-85
2022/09/13 19:23:33;;;;;;;4.80;3.60;;;22.90;70.50;;;;;;4978897;28;20542;-84